www.cux-wetter.de
Wetterdaten: Mittwoch, 22.06.2011
Datum Zeit Temp. A. Feuchte A. Luftdruck Regen Wind Richtung Richtung Sonnenschein Solar Taupunkt Windchill Windben
22.06.2011 00:01 16,4 C 81 % 1009,5 hPa 0,0 l/m 13,9 km/h (3 Bft) W-SW 255 0 min 0 W/m 13,1 C 13,2 C 13,9 km/h (3 Bft)
22.06.2011 00:06 16,4 C 80 % 1009,5 hPa 0,0 l/m 14,8 km/h (3 Bft) W-SW 255 0 min 0 W/m 12,9 C 12,9 C 14,8 km/h (3 Bft)
22.06.2011 00:11 16,4 C 80 % 1009,5 hPa 0,0 l/m 14,5 km/h (3 Bft) W 260 0 min 0 W/m 12,9 C 13,0 C 14,5 km/h (3 Bft)
22.06.2011 00:16 16,4 C 80 % 1009,5 hPa 0,0 l/m 17,0 km/h (3 Bft) W 265 0 min 0 W/m 12,9 C 12,3 C 17,0 km/h (3 Bft)
22.06.2011 00:21 16,4 C 79 % 1009,5 hPa 0,0 l/m 15,5 km/h (3 Bft) W-SW 250 0 min 0 W/m 12,7 C 12,7 C 15,5 km/h (3 Bft)
22.06.2011 00:26 16,5 C 78 % 1009,5 hPa 0,0 l/m 19,1 km/h (3 Bft) W-SW 255 0 min 0 W/m 12,6 C 11,9 C 19,1 km/h (3 Bft)
22.06.2011 00:31 16,5 C 78 % 1009,5 hPa 0,0 l/m 20,0 km/h (4 Bft) W 260 0 min 0 W/m 12,6 C 11,7 C 20,0 km/h (4 Bft)
22.06.2011 00:36 16,5 C 77 % 1009,5 hPa 0,0 l/m 20,1 km/h (4 Bft) W 270 0 min 0 W/m 12,5 C 11,7 C 20,1 km/h (4 Bft)
22.06.2011 00:42 16,6 C 76 % 1009,5 hPa 0,0 l/m 19,8 km/h (3 Bft) W-SW 255 0 min 0 W/m 12,3 C 11,9 C 19,8 km/h (3 Bft)
22.06.2011 00:46 16,7 C 76 % 1009,5 hPa 0,0 l/m 18,5 km/h (3 Bft) W 260 0 min 0 W/m 12,4 C 12,3 C 18,5 km/h (3 Bft)
22.06.2011 00:51 16,7 C 76 % 1009,5 hPa 0,0 l/m 19,9 km/h (4 Bft) W 260 0 min 0 W/m 12,4 C 12,0 C 19,9 km/h (4 Bft)
22.06.2011 00:56 16,6 C 77 % 1009,5 hPa 0,0 l/m 14,0 km/h (3 Bft) W-SW 250 0 min 0 W/m 12,5 C 13,4 C 14,0 km/h (3 Bft)
22.06.2011 01:01 16,6 C 78 % 1009,5 hPa 0,0 l/m 14,0 km/h (3 Bft) W-SW 250 0 min 0 W/m 12,7 C 13,4 C 14,0 km/h (3 Bft)
22.06.2011 01:06 16,6 C 78 % 1009,5 hPa 0,0 l/m 17,5 km/h (3 Bft) W-SW 250 0 min 0 W/m 12,7 C 12,4 C 17,5 km/h (3 Bft)
22.06.2011 01:11 16,5 C 78 % 1009,5 hPa 0,0 l/m 13,8 km/h (3 Bft) W-SW 250 0 min 0 W/m 12,6 C 13,4 C 13,8 km/h (3 Bft)
22.06.2011 01:16 16,4 C 78 % 1009,5 hPa 0,0 l/m 14,6 km/h (3 Bft) W-SW 250 0 min 0 W/m 12,6 C 13,0 C 14,6 km/h (3 Bft)
22.06.2011 01:21 16,3 C 78 % 1009,5 hPa 0,0 l/m 16,4 km/h (3 Bft) W-SW 245 0 min 0 W/m 12,5 C 12,4 C 16,4 km/h (3 Bft)
22.06.2011 01:26 16,2 C 78 % 1009,5 hPa 0,0 l/m 14,1 km/h (3 Bft) W 260 0 min 0 W/m 12,4 C 12,9 C 14,1 km/h (3 Bft)
22.06.2011 01:31 16,1 C 78 % 1009,5 hPa 0,0 l/m 14,6 km/h (3 Bft) W 260 0 min 0 W/m 12,3 C 12,6 C 14,6 km/h (3 Bft)
22.06.2011 01:36 16,0 C 78 % 1009,5 hPa 0,0 l/m 21,0 km/h (4 Bft) W 260 0 min 0 W/m 12,2 C 10,8 C 21,0 km/h (4 Bft)
22.06.2011 01:41 16,0 C 78 % 1009,5 hPa 0,0 l/m 17,0 km/h (3 Bft) W-SW 255 0 min 0 W/m 12,2 C 11,8 C 17,0 km/h (3 Bft)
22.06.2011 01:46 16,0 C 79 % 1009,5 hPa 0,0 l/m 10,4 km/h (2 Bft) W-SW 245 0 min 0 W/m 12,4 C 14,1 C 10,4 km/h (2 Bft)
22.06.2011 01:52 15,9 C 79 % 1009,5 hPa 0,0 l/m 12,0 km/h (2 Bft) W-SW 250 0 min 0 W/m 12,3 C 13,3 C 12,0 km/h (2 Bft)
22.06.2011 01:56 15,9 C 80 % 1009,5 hPa 0,0 l/m 12,0 km/h (2 Bft) W-SW 250 0 min 0 W/m 12,5 C 13,3 C 12,0 km/h (2 Bft)
22.06.2011 02:01 15,8 C 80 % 1009,5 hPa 0,0 l/m 11,6 km/h (2 Bft) W-SW 245 0 min 0 W/m 12,4 C 13,3 C 11,6 km/h (2 Bft)
22.06.2011 02:06 15,7 C 80 % 1009,5 hPa 0,0 l/m 9,3 km/h (2 Bft) W-SW 250 0 min 0 W/m 12,3 C 14,2 C 9,3 km/h (2 Bft)
22.06.2011 02:11 15,6 C 80 % 1009,5 hPa 0,0 l/m 12,0 km/h (2 Bft) W-SW 250 0 min 0 W/m 12,2 C 13,0 C 12,0 km/h (2 Bft)
22.06.2011 02:16 15,6 C 80 % 1009,5 hPa 0,0 l/m 14,8 km/h (3 Bft) W-SW 250 0 min 0 W/m 12,2 C 12,0 C 14,8 km/h (3 Bft)
22.06.2011 02:21 15,6 C 80 % 1009,5 hPa 0,0 l/m 11,0 km/h (2 Bft) W-SW 240 0 min 0 W/m 12,2 C 13,4 C 11,0 km/h (2 Bft)
22.06.2011 02:26 15,6 C 81 % 1009,5 hPa 0,0 l/m 12,5 km/h (2 Bft) SW 230 0 min 0 W/m 12,3 C 12,8 C 12,5 km/h (2 Bft)
22.06.2011 02:31 15,6 C 81 % 1009,5 hPa 0,0 l/m 13,1 km/h (3 Bft) SW 225 0 min 0 W/m 12,3 C 12,6 C 13,1 km/h (3 Bft)
22.06.2011 02:36 15,5 C 81 % 1009,5 hPa 0,0 l/m 11,5 km/h (2 Bft) W-SW 240 0 min 0 W/m 12,3 C 13,0 C 11,5 km/h (2 Bft)
22.06.2011 02:41 15,5 C 81 % 1009,5 hPa 0,0 l/m 13,0 km/h (3 Bft) W-SW 245 0 min 0 W/m 12,3 C 12,5 C 13,0 km/h (3 Bft)
22.06.2011 02:46 15,5 C 82 % 1009,5 hPa 0,0 l/m 10,4 km/h (2 Bft) SW 235 0 min 0 W/m 12,4 C 13,5 C 10,4 km/h (2 Bft)
22.06.2011 02:51 15,5 C 82 % 1009,5 hPa 0,0 l/m 10,1 km/h (2 Bft) SW 230 0 min 0 W/m 12,4 C 13,6 C 10,1 km/h (2 Bft)
22.06.2011 02:56 15,5 C 82 % 1009,5 hPa 0,0 l/m 12,1 km/h (2 Bft) SW 230 0 min 0 W/m 12,4 C 12,8 C 12,1 km/h (2 Bft)
22.06.2011 03:01 15,5 C 82 % 1009,5 hPa 0,0 l/m 13,0 km/h (3 Bft) W-SW 250 0 min 0 W/m 12,4 C 12,5 C 13,0 km/h (3 Bft)
22.06.2011 03:06 15,5 C 82 % 1009,5 hPa 0,0 l/m 15,4 km/h (3 Bft) W-SW 240 0 min 0 W/m 12,4 C 11,7 C 15,4 km/h (3 Bft)
22.06.2011 03:11 15,5 C 82 % 1009,5 hPa 0,0 l/m 13,6 km/h (3 Bft) W-SW 255 0 min 0 W/m 12,4 C 12,3 C 13,6 km/h (3 Bft)
22.06.2011 03:16 15,5 C 82 % 1009,5 hPa 0,0 l/m 15,0 km/h (3 Bft) SW 235 0 min 0 W/m 12,4 C 11,8 C 15,0 km/h (3 Bft)
22.06.2011 03:21 15,5 C 82 % 1008,5 hPa 0,0 l/m 13,1 km/h (3 Bft) W-SW 245 0 min 0 W/m 12,4 C 12,4 C 13,1 km/h (3 Bft)
22.06.2011 03:27 15,5 C 82 % 1008,5 hPa 0,0 l/m 13,1 km/h (3 Bft) W-SW 245 0 min 0 W/m 12,4 C 12,4 C 13,1 km/h (3 Bft)
22.06.2011 03:31 15,5 C 82 % 1009,5 hPa 0,0 l/m 13,0 km/h (3 Bft) W-SW 255 0 min 0 W/m 12,4 C 12,5 C 13,0 km/h (3 Bft)
22.06.2011 03:36 15,5 C 82 % 1009,5 hPa 0,0 l/m 12,7 km/h (3 Bft) SW 235 0 min 0 W/m 12,4 C 12,6 C 12,7 km/h (3 Bft)
22.06.2011 03:41 15,5 C 82 % 1009,5 hPa 0,0 l/m 15,0 km/h (3 Bft) W-SW 250 0 min 0 W/m 12,4 C 11,8 C 15,0 km/h (3 Bft)
22.06.2011 03:46 15,5 C 82 % 1009,5 hPa 0,0 l/m 16,8 km/h (3 Bft) W-SW 245 0 min 0 W/m 12,4 C 11,2 C 16,8 km/h (3 Bft)
22.06.2011 03:51 15,4 C 82 % 1009,5 hPa 0,0 l/m 15,6 km/h (3 Bft) W-SW 240 0 min 0 W/m 12,3 C 11,5 C 15,6 km/h (3 Bft)
22.06.2011 03:56 15,3 C 82 % 1009,5 hPa 0,0 l/m 14,6 km/h (3 Bft) W-SW 255 0 min 0 W/m 12,2 C 11,7 C 14,6 km/h (3 Bft)
22.06.2011 04:01 15,3 C 82 % 1009,5 hPa 0,0 l/m 15,0 km/h (3 Bft) W-SW 255 0 min 0 W/m 12,2 C 11,6 C 15,0 km/h (3 Bft)
22.06.2011 04:06 15,2 C 82 % 1008,5 hPa 0,0 l/m 18,0 km/h (3 Bft) W-SW 245 0 min 0 W/m 12,1 C 10,5 C 18,0 km/h (3 Bft)
22.06.2011 04:11 15,1 C 82 % 1008,5 hPa 0,0 l/m 14,8 km/h (3 Bft) W-SW 240 0 min 0 W/m 12,0 C 11,4 C 14,8 km/h (3 Bft)
22.06.2011 04:16 15,0 C 82 % 1008,5 hPa 0,0 l/m 17,6 km/h (3 Bft) W-SW 255 0 min 0 W/m 12,0 C 10,4 C 17,6 km/h (3 Bft)
22.06.2011 04:21 15,0 C 82 % 1008,5 hPa 0,0 l/m 12,5 km/h (2 Bft) W-SW 245 0 min 0 W/m 12,0 C 12,1 C 12,5 km/h (2 Bft)
22.06.2011 04:26 15,0 C 82 % 1008,5 hPa 0,0 l/m 13,8 km/h (3 Bft) W-SW 240 0 min 0 W/m 12,0 C 11,6 C 13,8 km/h (3 Bft)
22.06.2011 04:31 15,0 C 82 % 1008,5 hPa 0,0 l/m 16,9 km/h (3 Bft) W-SW 240 0 min 0 W/m 12,0 C 10,6 C 16,9 km/h (3 Bft)
22.06.2011 04:36 15,0 C 83 % 1008,5 hPa 0,0 l/m 11,1 km/h (2 Bft) SW 230 0 min 0 W/m 12,1 C 12,6 C 11,1 km/h (2 Bft)
22.06.2011 04:41 15,0 C 83 % 1008,5 hPa 0,0 l/m 13,3 km/h (3 Bft) W-SW 240 0 min 0 W/m 12,1 C 11,8 C 13,3 km/h (3 Bft)
22.06.2011 04:46 15,0 C 83 % 1008,5 hPa 0,0 l/m 13,5 km/h (3 Bft) SW 225 0 min 0 W/m 12,1 C 11,7 C 13,5 km/h (3 Bft)
22.06.2011 04:51 15,0 C 83 % 1008,5 hPa 0,0 l/m 6,8 km/h (2 Bft) SW 230 0 min 0 W/m 12,1 C 14,8 C 6,8 km/h (2 Bft)
22.06.2011 04:56 14,9 C 83 % 1008,5 hPa 0,0 l/m 12,8 km/h (3 Bft) S-SW 210 0 min 0 W/m 12,0 C 11,8 C 12,8 km/h (3 Bft)
22.06.2011 05:01 14,9 C 83 % 1008,5 hPa 0,0 l/m 7,6 km/h (2 Bft) SW 215 0 min 0 W/m 12,0 C 14,2 C 7,6 km/h (2 Bft)
22.06.2011 05:06 14,7 C 82 % 1008,5 hPa 0,0 l/m 9,5 km/h (2 Bft) SW 215 0 min 0 W/m 11,7 C 13,0 C 9,5 km/h (2 Bft)
22.06.2011 05:11 14,8 C 82 % 1008,5 hPa 0,0 l/m 9,0 km/h (2 Bft) S-SW 200 0 min 0 W/m 11,8 C 13,4 C 9,0 km/h (2 Bft)
22.06.2011 05:16 14,7 C 83 % 1008,5 hPa 0,0 l/m 9,0 km/h (2 Bft) S-SW 200 0 min 0 W/m 11,8 C 13,3 C 9,0 km/h (2 Bft)
22.06.2011 05:21 14,6 C 82 % 1008,5 hPa 0,0 l/m 7,0 km/h (2 Bft) S-SW 195 0 min 0 W/m 11,6 C 14,3 C 7,0 km/h (2 Bft)
22.06.2011 05:26 14,6 C 82 % 1008,5 hPa 0,0 l/m 7,2 km/h (2 Bft) S-SW 195 0 min 0 W/m 11,6 C 14,1 C 7,2 km/h (2 Bft)
22.06.2011 05:31 14,4 C 83 % 1008,5 hPa 0,0 l/m 10,3 km/h (2 Bft) S-SW 195 0 min 0 W/m 11,5 C 12,3 C 10,3 km/h (2 Bft)
22.06.2011 05:36 14,4 C 83 % 1008,5 hPa 0,0 l/m 8,9 km/h (2 Bft) S 185 0 min 0 W/m 11,5 C 13,0 C 8,9 km/h (2 Bft)
22.06.2011 05:41 14,4 C 83 % 1008,5 hPa 0,0 l/m 7,2 km/h (2 Bft) S-SW 200 0 min 0 W/m 11,5 C 13,9 C 7,2 km/h (2 Bft)
22.06.2011 05:46 14,4 C 83 % 1008,5 hPa 0,0 l/m 8,9 km/h (2 Bft) S-SW 195 0 min 0 W/m 11,5 C 13,0 C 8,9 km/h (2 Bft)
22.06.2011 05:51 14,4 C 83 % 1008,5 hPa 0,0 l/m 9,6 km/h (2 Bft) S-SW 195 0 min 0 W/m 11,5 C 12,6 C 9,6 km/h (2 Bft)
22.06.2011 05:56 14,4 C 83 % 1008,5 hPa 0,0 l/m 11,1 km/h (2 Bft) S-SW 205 0 min 0 W/m 11,5 C 12,0 C 11,1 km/h (2 Bft)
22.06.2011 06:01 14,4 C 83 % 1008,5 hPa 0,0 l/m 10,2 km/h (2 Bft) S-SW 195 0 min 0 W/m 11,5 C 12,4 C 10,2 km/h (2 Bft)
22.06.2011 06:06 14,6 C 83 % 1008,5 hPa 0,0 l/m 11,8 km/h (2 Bft) S-SW 200 0 min 0 W/m 11,7 C 11,9 C 11,8 km/h (2 Bft)
22.06.2011 06:11 14,6 C 83 % 1008,5 hPa 0,0 l/m 9,0 km/h (2 Bft) S-SW 200 0 min 0 W/m 11,7 C 13,2 C 9,0 km/h (2 Bft)
22.06.2011 06:16 14,6 C 83 % 1008,5 hPa 0,0 l/m 9,6 km/h (2 Bft) S-SW 200 0 min 0 W/m 11,7 C 12,9 C 9,6 km/h (2 Bft)
22.06.2011 06:21 14,6 C 83 % 1008,5 hPa 0,0 l/m 11,0 km/h (2 Bft) SW 215 0 min 0 W/m 11,7 C 12,2 C 11,0 km/h (2 Bft)
22.06.2011 06:26 14,6 C 83 % 1008,5 hPa 0,0 l/m 13,5 km/h (3 Bft) SW 215 0 min 0 W/m 11,7 C 11,2 C 13,5 km/h (3 Bft)
22.06.2011 06:31 14,6 C 83 % 1008,5 hPa 0,0 l/m 12,8 km/h (3 Bft) SW 215 0 min 0 W/m 11,7 C 11,5 C 12,8 km/h (3 Bft)
22.06.2011 06:37 14,6 C 83 % 1008,5 hPa 0,0 l/m 9,8 km/h (2 Bft) W-SW 245 0 min 0 W/m 11,7 C 12,8 C 9,8 km/h (2 Bft)
22.06.2011 06:41 14,6 C 83 % 1008,5 hPa 0,0 l/m 13,1 km/h (3 Bft) W-SW 240 0 min 0 W/m 11,7 C 11,4 C 13,1 km/h (3 Bft)
22.06.2011 06:46 14,8 C 83 % 1008,5 hPa 0,0 l/m 20,3 km/h (4 Bft) W-SW 250 0 min 0 W/m 11,9 C 9,4 C 20,3 km/h (4 Bft)
22.06.2011 06:51 14,8 C 83 % 1008,5 hPa 0,0 l/m 22,5 km/h (4 Bft) W 265 0 min 0 W/m 11,9 C 8,9 C 22,5 km/h (4 Bft)
22.06.2011 06:56 15,0 C 82 % 1008,5 hPa 0,0 l/m 24,8 km/h (4 Bft) W-SW 245 0 min 0 W/m 12,0 C 8,6 C 24,8 km/h (4 Bft)
22.06.2011 07:01 15,0 C 81 % 1008,5 hPa 0,0 l/m 19,7 km/h (3 Bft) W 260 0 min 0 W/m 11,8 C 9,8 C 19,7 km/h (3 Bft)
22.06.2011 07:06 15,1 C 81 % 1008,5 hPa 0,0 l/m 27,6 km/h (5 Bft) W-SW 250 0 min 0 W/m 11,9 C 8,2 C 27,6 km/h (5 Bft)
22.06.2011 07:11 15,2 C 81 % 1008,5 hPa 0,0 l/m 23,0 km/h (4 Bft) W-SW 250 0 min 0 W/m 12,0 C 9,3 C 23,0 km/h (4 Bft)
22.06.2011 07:16 15,3 C 81 % 1008,5 hPa 0,0 l/m 21,6 km/h (4 Bft) W 260 0 min 0 W/m 12,1 C 9,7 C 21,6 km/h (4 Bft)
22.06.2011 07:21 15,4 C 81 % 1008,5 hPa 0,0 l/m 28,1 km/h (5 Bft) W 260 0 min 0 W/m 12,2 C 8,6 C 28,1 km/h (5 Bft)
22.06.2011 07:26 15,6 C 80 % 1008,5 hPa 0,0 l/m 22,1 km/h (4 Bft) W-SW 255 0 min 0 W/m 12,2 C 10,0 C 22,1 km/h (4 Bft)
22.06.2011 07:31 15,7 C 80 % 1008,5 hPa 0,0 l/m 22,1 km/h (4 Bft) W-SW 255 0 min 0 W/m 12,3 C 10,2 C 22,1 km/h (4 Bft)
22.06.2011 07:36 15,8 C 79 % 1008,5 hPa 0,0 l/m 21,8 km/h (4 Bft) W 260 0 min 0 W/m 12,2 C 10,4 C 21,8 km/h (4 Bft)
22.06.2011 07:42 15,8 C 79 % 1008,5 hPa 0,0 l/m 22,2 km/h (4 Bft) W 260 0 min 0 W/m 12,2 C 10,3 C 22,2 km/h (4 Bft)
22.06.2011 07:46 15,9 C 79 % 1008,5 hPa 0,0 l/m 23,6 km/h (4 Bft) W-SW 250 0 min 0 W/m 12,3 C 10,1 C 23,6 km/h (4 Bft)
22.06.2011 07:51 15,9 C 78 % 1008,5 hPa 0,0 l/m 27,8 km/h (5 Bft) W 260 0 min 0 W/m 12,1 C 9,3 C 27,8 km/h (5 Bft)
22.06.2011 07:56 15,9 C 78 % 1008,5 hPa 0,0 l/m 23,3 km/h (4 Bft) W 260 0 min 0 W/m 12,1 C 10,2 C 23,3 km/h (4 Bft)
22.06.2011 08:01 16,0 C 77 % 1008,5 hPa 0,0 l/m 27,1 km/h (5 Bft) W-SW 250 0 min 0 W/m 12,0 C 9,6 C 27,1 km/h (5 Bft)
22.06.2011 08:07 16,0 C 77 % 1008,5 hPa 0,0 l/m 20,4 km/h (4 Bft) W 260 0 min 0 W/m 12,0 C 10,9 C 20,4 km/h (4 Bft)
22.06.2011 08:11 16,0 C 77 % 1008,5 hPa 0,0 l/m 23,8 km/h (4 Bft) W-SW 255 0 min 0 W/m 12,0 C 10,2 C 23,8 km/h (4 Bft)
22.06.2011 08:16 16,0 C 77 % 1008,5 hPa 0,0 l/m 23,5 km/h (4 Bft) W-SW 255 0 min 0 W/m 12,0 C 10,3 C 23,5 km/h (4 Bft)
22.06.2011 08:21 16,2 C 75 % 1008,5 hPa 0,0 l/m 28,3 km/h (5 Bft) W 270 0 min 0 W/m 11,8 C 9,6 C 28,3 km/h (5 Bft)
22.06.2011 08:26 16,2 C 76 % 1008,5 hPa 0,0 l/m 25,8 km/h (4 Bft) W 270 0 min 0 W/m 12,0 C 10,1 C 25,8 km/h (4 Bft)
22.06.2011 08:31 16,3 C 75 % 1008,5 hPa 0,0 l/m 28,7 km/h (5 Bft) W 265 0 min 0 W/m 11,9 C 9,7 C 28,7 km/h (5 Bft)
22.06.2011 08:36 16,4 C 76 % 1008,5 hPa 0,0 l/m 23,0 km/h (4 Bft) W-SW 245 0 min 0 W/m 12,2 C 10,9 C 23,0 km/h (4 Bft)
22.06.2011 08:42 16,4 C 75 % 1008,5 hPa 0,0 l/m 23,5 km/h (4 Bft) W 260 0 min 0 W/m 12,0 C 10,8 C 23,5 km/h (4 Bft)
22.06.2011 08:46 16,6 C 74 % 1008,5 hPa 0,0 l/m 26,0 km/h (4 Bft) W 265 0 min 0 W/m 11,9 C 10,6 C 26,0 km/h (4 Bft)
22.06.2011 08:51 16,6 C 74 % 1008,5 hPa 0,0 l/m 28,5 km/h (5 Bft) W-SW 255 0 min 0 W/m 11,9 C 10,2 C 28,5 km/h (5 Bft)
22.06.2011 08:56 16,6 C 73 % 1008,5 hPa 0,0 l/m 26,7 km/h (4 Bft) W 260 0 min 0 W/m 11,7 C 10,5 C 26,7 km/h (4 Bft)
22.06.2011 09:01 16,6 C 72 % 1008,5 hPa 0,0 l/m 27,8 km/h (5 Bft) W-SW 255 0 min 0 W/m 11,5 C 10,3 C 27,8 km/h (5 Bft)
22.06.2011 09:06 16,8 C 71 % 1008,5 hPa 0,0 l/m 25,1 km/h (4 Bft) W 260 0 min 0 W/m 11,5 C 11,0 C 25,1 km/h (4 Bft)
22.06.2011 09:11 17,0 C 71 % 1008,5 hPa 0,0 l/m 25,1 km/h (4 Bft) W-SW 255 0 min 0 W/m 11,7 C 11,3 C 25,1 km/h (4 Bft)
22.06.2011 09:16 17,1 C 72 % 1008,5 hPa 0,0 l/m 20,0 km/h (4 Bft) W 260 0 min 0 W/m 12,0 C 12,5 C 20,0 km/h (4 Bft)
22.06.2011 09:21 17,2 C 71 % 1008,5 hPa 0,0 l/m 23,2 km/h (4 Bft) W-SW 250 0 min 0 W/m 11,9 C 11,9 C 23,2 km/h (4 Bft)
22.06.2011 09:26 17,2 C 71 % 1008,5 hPa 0,0 l/m 24,7 km/h (4 Bft) W-SW 255 0 min 0 W/m 11,9 C 11,6 C 24,7 km/h (4 Bft)
22.06.2011 09:31 17,3 C 70 % 1008,5 hPa 0,0 l/m 26,6 km/h (4 Bft) W 260 0 min 0 W/m 11,8 C 11,4 C 26,6 km/h (4 Bft)
22.06.2011 09:36 17,4 C 70 % 1008,5 hPa 0,0 l/m 18,8 km/h (3 Bft) W 260 0 min 0 W/m 11,9 C 13,1 C 18,8 km/h (3 Bft)
22.06.2011 09:41 17,5 C 70 % 1008,5 hPa 0,0 l/m 25,1 km/h (4 Bft) W-SW 250 0 min 0 W/m 12,0 C 12,0 C 25,1 km/h (4 Bft)
22.06.2011 09:46 17,6 C 70 % 1008,5 hPa 0,0 l/m 23,8 km/h (4 Bft) W 270 0 min 0 W/m 12,1 C 12,3 C 23,8 km/h (4 Bft)
22.06.2011 09:51 17,6 C 69 % 1008,5 hPa 0,0 l/m 23,7 km/h (4 Bft) W 260 0 min 0 W/m 11,8 C 12,4 C 23,7 km/h (4 Bft)
22.06.2011 09:56 17,4 C 69 % 1008,5 hPa 0,0 l/m 23,0 km/h (4 Bft) W-SW 255 0 min 0 W/m 11,7 C 12,2 C 23,0 km/h (4 Bft)
22.06.2011 10:01 17,5 C 71 % 1008,5 hPa 0,0 l/m 22,4 km/h (4 Bft) W 260 0 min 0 W/m 12,2 C 12,5 C 22,4 km/h (4 Bft)
22.06.2011 10:06 17,6 C 70 % 1008,5 hPa 0,0 l/m 18,0 km/h (3 Bft) W 260 0 min 0 W/m 12,1 C 13,6 C 18,0 km/h (3 Bft)
22.06.2011 10:11 17,6 C 70 % 1008,5 hPa 0,0 l/m 19,1 km/h (3 Bft) W-SW 250 0 min 0 W/m 12,1 C 13,3 C 19,1 km/h (3 Bft)
22.06.2011 10:16 17,7 C 69 % 1008,5 hPa 0,0 l/m 20,5 km/h (4 Bft) W 260 0 min 0 W/m 11,9 C 13,1 C 20,5 km/h (4 Bft)
22.06.2011 10:21 17,7 C 69 % 1008,5 hPa 0,0 l/m 23,6 km/h (4 Bft) W-SW 240 0 min 0 W/m 11,9 C 12,5 C 23,6 km/h (4 Bft)
22.06.2011 10:26 17,7 C 68 % 1008,5 hPa 0,0 l/m 20,6 km/h (4 Bft) W-SW 250 0 min 0 W/m 11,7 C 13,1 C 20,6 km/h (4 Bft)
22.06.2011 10:31 17,9 C 68 % 1008,5 hPa 0,0 l/m 16,6 km/h (3 Bft) W 265 0 min 0 W/m 11,9 C 14,3 C 16,6 km/h (3 Bft)
22.06.2011 10:37 18,0 C 68 % 1008,5 hPa 0,0 l/m 13,7 km/h (3 Bft) W-SW 240 0 min 0 W/m 12,0 C 15,2 C 13,7 km/h (3 Bft)
22.06.2011 10:41 18,1 C 68 % 1008,5 hPa 0,0 l/m 17,5 km/h (3 Bft) W-SW 250 0 min 0 W/m 12,1 C 14,3 C 17,5 km/h (3 Bft)
22.06.2011 10:46 18,2 C 68 % 1008,5 hPa 0,0 l/m 16,0 km/h (3 Bft) W-SW 255 0 min 0 W/m 12,2 C 14,8 C 16,0 km/h (3 Bft)
22.06.2011 10:51 18,0 C 67 % 1008,5 hPa 0,0 l/m 17,6 km/h (3 Bft) W-SW 250 0 min 0 W/m 11,8 C 14,2 C 17,6 km/h (3 Bft)
22.06.2011 10:56 17,9 C 66 % 1008,5 hPa 0,0 l/m 19,0 km/h (3 Bft) W 260 0 min 0 W/m 11,5 C 13,7 C 19,0 km/h (3 Bft)
22.06.2011 11:01 17,7 C 68 % 1008,5 hPa 0,0 l/m 14,1 km/h (3 Bft) W 260 0 min 0 W/m 11,7 C 14,7 C 14,1 km/h (3 Bft)
22.06.2011 11:06 17,7 C 68 % 1008,5 hPa 0,0 l/m 17,3 km/h (3 Bft) W-SW 255 0 min 0 W/m 11,7 C 13,9 C 17,3 km/h (3 Bft)
22.06.2011 11:11 17,6 C 69 % 1008,5 hPa 0,0 l/m 18,8 km/h (3 Bft) W-SW 245 0 min 0 W/m 11,8 C 13,4 C 18,8 km/h (3 Bft)
22.06.2011 11:16 17,6 C 69 % 1008,5 hPa 0,0 l/m 20,6 km/h (4 Bft) SW 235 0 min 0 W/m 11,8 C 13,0 C 20,6 km/h (4 Bft)
22.06.2011 11:21 17,7 C 70 % 1008,5 hPa 0,0 l/m 17,8 km/h (3 Bft) SW 235 0 min 0 W/m 12,2 C 13,7 C 17,8 km/h (3 Bft)
22.06.2011 11:26 17,6 C 70 % 1008,5 hPa 0,0 l/m 18,6 km/h (3 Bft) W-SW 240 0 min 0 W/m 12,1 C 13,4 C 18,6 km/h (3 Bft)
22.06.2011 11:32 17,6 C 70 % 1008,5 hPa 0,0 l/m 20,1 km/h (4 Bft) W-SW 240 0 min 0 W/m 12,1 C 13,1 C 20,1 km/h (4 Bft)
22.06.2011 11:36 17,5 C 70 % 1008,5 hPa 0,0 l/m 11,6 km/h (2 Bft) W-SW 240 0 min 0 W/m 12,0 C 15,3 C 11,6 km/h (2 Bft)
22.06.2011 11:41 17,6 C 70 % 1007,5 hPa 0,0 l/m 16,9 km/h (3 Bft) W-SW 240 0 min 0 W/m 12,1 C 13,8 C 16,9 km/h (3 Bft)
22.06.2011 11:46 17,5 C 70 % 1007,5 hPa 0,0 l/m 19,0 km/h (3 Bft) W-SW 245 0 min 0 W/m 12,0 C 13,2 C 19,0 km/h (3 Bft)
22.06.2011 11:51 17,5 C 70 % 1008,5 hPa 0,0 l/m 17,6 km/h (3 Bft) W-SW 250 0 min 0 W/m 12,0 C 13,5 C 17,6 km/h (3 Bft)
22.06.2011 11:56 17,5 C 71 % 1008,5 hPa 0,0 l/m 12,7 km/h (3 Bft) SW 235 0 min 0 W/m 12,2 C 14,9 C 12,7 km/h (3 Bft)
22.06.2011 12:01 17,5 C 71 % 1008,5 hPa 0,0 l/m 16,2 km/h (3 Bft) W-SW 250 0 min 0 W/m 12,2 C 13,9 C 16,2 km/h (3 Bft)
22.06.2011 12:06 17,6 C 71 % 1008,5 hPa 0,0 l/m 12,0 km/h (2 Bft) SW 230 0 min 0 W/m 12,3 C 15,3 C 12,0 km/h (2 Bft)
22.06.2011 12:11 17,6 C 71 % 1008,5 hPa 0,0 l/m 16,4 km/h (3 Bft) W-SW 245 0 min 0 W/m 12,3 C 14,0 C 16,4 km/h (3 Bft)
22.06.2011 12:16 17,6 C 71 % 1008,5 hPa 0,0 l/m 17,5 km/h (3 Bft) W-SW 250 0 min 0 W/m 12,3 C 13,7 C 17,5 km/h (3 Bft)
22.06.2011 12:21 17,6 C 70 % 1008,5 hPa 0,0 l/m 19,0 km/h (3 Bft) W-SW 250 0 min 0 W/m 12,1 C 13,3 C 19,0 km/h (3 Bft)
22.06.2011 12:26 17,5 C 71 % 1008,5 hPa 0,0 l/m 24,0 km/h (4 Bft) W-SW 250 0 min 0 W/m 12,2 C 12,2 C 24,0 km/h (4 Bft)
22.06.2011 12:31 17,5 C 71 % 1008,5 hPa 0,0 l/m 19,0 km/h (3 Bft) W-SW 240 0 min 0 W/m 12,2 C 13,2 C 19,0 km/h (3 Bft)
22.06.2011 12:36 17,5 C 71 % 1008,5 hPa 0,0 l/m 18,3 km/h (3 Bft) W-SW 245 0 min 0 W/m 12,2 C 13,4 C 18,3 km/h (3 Bft)
22.06.2011 12:41 17,4 C 71 % 1008,5 hPa 0,0 l/m 22,3 km/h (4 Bft) W-SW 255 0 min 0 W/m 12,1 C 12,4 C 22,3 km/h (4 Bft)
22.06.2011 12:46 17,3 C 71 % 1008,5 hPa 0,0 l/m 18,7 km/h (3 Bft) W 260 0 min 0 W/m 12,0 C 13,0 C 18,7 km/h (3 Bft)
22.06.2011 12:51 17,3 C 71 % 1008,5 hPa 0,0 l/m 18,8 km/h (3 Bft) W 260 0 min 0 W/m 12,0 C 13,0 C 18,8 km/h (3 Bft)
22.06.2011 12:56 17,4 C 69 % 1008,5 hPa 0,0 l/m 18,2 km/h (3 Bft) W 260 0 min 0 W/m 11,7 C 13,3 C 18,2 km/h (3 Bft)
22.06.2011 13:01 17,5 C 69 % 1008,5 hPa 0,0 l/m 18,5 km/h (3 Bft) W-SW 245 0 min 0 W/m 11,7 C 13,3 C 18,5 km/h (3 Bft)
22.06.2011 13:06 17,8 C 68 % 1007,5 hPa 0,0 l/m 16,1 km/h (3 Bft) W 260 0 min 0 W/m 11,8 C 14,3 C 16,1 km/h (3 Bft)
22.06.2011 13:11 18,4 C 68 % 1007,5 hPa 0,0 l/m 15,1 km/h (3 Bft) W 260 0 min 0 W/m 12,4 C 15,3 C 15,1 km/h (3 Bft)
22.06.2011 13:16 18,8 C 66 % 1007,5 hPa 0,0 l/m 16,0 km/h (3 Bft) W 265 0 min 0 W/m 12,3 C 15,5 C 16,0 km/h (3 Bft)
22.06.2011 13:21 18,9 C 66 % 1007,5 hPa 0,0 l/m 16,2 km/h (3 Bft) W 260 0 min 0 W/m 12,4 C 15,6 C 16,2 km/h (3 Bft)
22.06.2011 13:26 19,0 C 64 % 1007,5 hPa 0,0 l/m 13,5 km/h (3 Bft) W 260 0 min 0 W/m 12,0 C 16,4 C 13,5 km/h (3 Bft)
22.06.2011 13:31 18,8 C 62 % 1007,5 hPa 0,0 l/m 14,4 km/h (3 Bft) W 270 0 min 0 W/m 11,4 C 16,0 C 14,4 km/h (3 Bft)
22.06.2011 13:36 18,6 C 62 % 1007,5 hPa 0,0 l/m 15,3 km/h (3 Bft) W 260 0 min 0 W/m 11,2 C 15,5 C 15,3 km/h (3 Bft)
22.06.2011 13:41 18,6 C 64 % 1007,5 hPa 0,0 l/m 8,6 km/h (2 Bft) W 260 0 min 0 W/m 11,7 C 17,6 C 8,6 km/h (2 Bft)
22.06.2011 13:46 18,5 C 64 % 1007,5 hPa 0,0 l/m 11,8 km/h (2 Bft) W 265 0 min 0 W/m 11,6 C 16,4 C 11,8 km/h (2 Bft)
22.06.2011 13:51 18,6 C 64 % 1007,5 hPa 0,0 l/m 10,5 km/h (2 Bft) W 265 0 min 0 W/m 11,7 C 16,9 C 10,5 km/h (2 Bft)
22.06.2011 13:56 18,6 C 64 % 1007,5 hPa 0,0 l/m 14,1 km/h (3 Bft) W-SW 250 0 min 0 W/m 11,7 C 15,8 C 14,1 km/h (3 Bft)
22.06.2011 14:01 18,5 C 63 % 1007,5 hPa 0,0 l/m 16,8 km/h (3 Bft) W 260 0 min 0 W/m 11,3 C 15,0 C 16,8 km/h (3 Bft)
22.06.2011 14:06 18,3 C 63 % 1007,5 hPa 0,0 l/m 14,0 km/h (3 Bft) W 265 0 min 0 W/m 11,1 C 15,5 C 14,0 km/h (3 Bft)
22.06.2011 14:11 18,2 C 64 % 1007,5 hPa 0,0 l/m 10,7 km/h (2 Bft) W 260 0 min 0 W/m 11,3 C 16,4 C 10,7 km/h (2 Bft)
22.06.2011 14:16 18,3 C 65 % 1007,5 hPa 0,0 l/m 10,2 km/h (2 Bft) W-SW 250 0 min 0 W/m 11,6 C 16,7 C 10,2 km/h (2 Bft)
22.06.2011 14:21 18,3 C 64 % 1007,5 hPa 0,0 l/m 11,8 km/h (2 Bft) W 270 0 min 0 W/m 11,4 C 16,1 C 11,8 km/h (2 Bft)
22.06.2011 14:26 18,3 C 64 % 1007,5 hPa 0,0 l/m 13,3 km/h (3 Bft) W-SW 255 0 min 0 W/m 11,4 C 15,7 C 13,3 km/h (3 Bft)
22.06.2011 14:31 18,2 C 65 % 1007,5 hPa 0,0 l/m 13,0 km/h (3 Bft) W 270 0 min 0 W/m 11,5 C 15,6 C 13,0 km/h (3 Bft)
22.06.2011 14:36 18,1 C 65 % 1007,5 hPa 0,0 l/m 12,5 km/h (2 Bft) W 270 0 min 0 W/m 11,4 C 15,7 C 12,5 km/h (2 Bft)
22.06.2011 14:41 18,1 C 66 % 1007,5 hPa 0,0 l/m 8,9 km/h (2 Bft) W 270 0 min 0 W/m 11,6 C 17,0 C 8,9 km/h (2 Bft)
22.06.2011 14:46 18,1 C 66 % 1007,5 hPa 0,0 l/m 10,3 km/h (2 Bft) W-SW 255 0 min 0 W/m 11,6 C 16,4 C 10,3 km/h (2 Bft)
22.06.2011 14:51 18,1 C 66 % 1007,5 hPa 0,0 l/m 8,9 km/h (2 Bft) W 265 0 min 0 W/m 11,6 C 17,0 C 8,9 km/h (2 Bft)
22.06.2011 14:56 18,0 C 68 % 1007,5 hPa 0,0 l/m 7,8 km/h (2 Bft) W 260 0 min 0 W/m 12,0 C 17,3 C 7,8 km/h (2 Bft)
22.06.2011 15:01 17,9 C 67 % 1007,5 hPa 0,0 l/m 5,8 km/h (2 Bft) W 265 0 min 0 W/m 11,7 C 17,9 C 5,8 km/h (2 Bft)
22.06.2011 15:06 18,0 C 68 % 1007,5 hPa 0,0 l/m 5,9 km/h (2 Bft) W 260 0 min 0 W/m 12,0 C 18,0 C 5,9 km/h (2 Bft)
22.06.2011 15:11 18,0 C 68 % 1007,5 hPa 0,0 l/m 8,3 km/h (2 Bft) W 260 0 min 0 W/m 12,0 C 17,1 C 8,3 km/h (2 Bft)
22.06.2011 15:16 18,0 C 68 % 1006,5 hPa 0,0 l/m 6,9 km/h (2 Bft) W-SW 250 0 min 0 W/m 12,0 C 17,8 C 6,9 km/h (2 Bft)
22.06.2011 15:21 18,0 C 68 % 1006,5 hPa 0,0 l/m 5,0 km/h (1 Bft) W-SW 250 0 min 0 W/m 12,0 C 18,0 C 5,0 km/h (1 Bft)
22.06.2011 15:26 18,1 C 69 % 1006,5 hPa 0,0 l/m 4,9 km/h (1 Bft) W-SW 250 0 min 0 W/m 12,3 C 18,1 C 4,9 km/h (1 Bft)
22.06.2011 15:31 18,0 C 68 % 1006,5 hPa 0,0 l/m 7,9 km/h (2 Bft) W-SW 250 0 min 0 W/m 12,0 C 17,3 C 7,9 km/h (2 Bft)
22.06.2011 15:36 18,0 C 68 % 1006,5 hPa 0,0 l/m 6,4 km/h (2 Bft) W-SW 255 0 min 0 W/m 12,0 C 18,0 C 6,4 km/h (2 Bft)
22.06.2011 15:41 18,0 C 68 % 1006,5 hPa 0,0 l/m 6,5 km/h (2 Bft) W-SW 255 0 min 0 W/m 12,0 C 18,0 C 6,5 km/h (2 Bft)
22.06.2011 15:46 18,0 C 68 % 1006,5 hPa 0,0 l/m 8,7 km/h (2 Bft) W-SW 255 0 min 0 W/m 12,0 C 16,9 C 8,7 km/h (2 Bft)
22.06.2011 15:51 18,0 C 67 % 1006,5 hPa 0,0 l/m 9,2 km/h (2 Bft) W 265 0 min 0 W/m 11,8 C 16,7 C 9,2 km/h (2 Bft)
22.06.2011 15:56 18,0 C 69 % 1007,5 hPa 0,0 l/m 6,5 km/h (2 Bft) W-SW 255 0 min 0 W/m 12,2 C 18,0 C 6,5 km/h (2 Bft)
22.06.2011 16:01 18,0 C 69 % 1007,5 hPa 0,0 l/m 7,3 km/h (2 Bft) W-SW 250 0 min 0 W/m 12,2 C 17,6 C 7,3 km/h (2 Bft)
22.06.2011 16:06 18,0 C 69 % 1007,5 hPa 0,0 l/m 8,4 km/h (2 Bft) W 260 0 min 0 W/m 12,2 C 17,1 C 8,4 km/h (2 Bft)
22.06.2011 16:11 18,0 C 69 % 1007,5 hPa 0,0 l/m 8,8 km/h (2 Bft) W-SW 255 0 min 0 W/m 12,2 C 16,9 C 8,8 km/h (2 Bft)
22.06.2011 16:16 18,0 C 69 % 1007,5 hPa 0,0 l/m 4,4 km/h (1 Bft) W-SW 245 0 min 0 W/m 12,2 C 18,0 C 4,4 km/h (1 Bft)
22.06.2011 16:21 18,0 C 69 % 1007,5 hPa 0,0 l/m 3,5 km/h (1 Bft) W-SW 250 0 min 0 W/m 12,2 C 18,0 C 3,5 km/h (1 Bft)
22.06.2011 16:26 18,0 C 69 % 1006,5 hPa 0,0 l/m 8,1 km/h (2 Bft) W 260 0 min 0 W/m 12,2 C 17,2 C 8,1 km/h (2 Bft)
22.06.2011 16:31 18,0 C 70 % 1006,5 hPa 0,0 l/m 5,3 km/h (1 Bft) SW 230 0 min 0 W/m 12,4 C 18,0 C 5,3 km/h (1 Bft)
22.06.2011 16:36 18,0 C 70 % 1006,5 hPa 0,0 l/m 4,0 km/h (1 Bft) SW 230 0 min 0 W/m 12,4 C 18,0 C 4,0 km/h (1 Bft)
22.06.2011 16:41 18,0 C 70 % 1006,5 hPa 0,0 l/m 2,9 km/h (1 Bft) SW 230 0 min 0 W/m 12,4 C 18,0 C 2,9 km/h (1 Bft)
22.06.2011 16:46 18,0 C 70 % 1006,5 hPa 0,0 l/m 0,0 km/h (0 Bft) SW 230 0 min 0 W/m 12,4 C 18,0 C 0,0 km/h (0 Bft)
22.06.2011 16:51 18,0 C 71 % 1006,5 hPa 0,0 l/m 4,2 km/h (1 Bft) SW 230 0 min 0 W/m 12,7 C 18,0 C 4,2 km/h (1 Bft)
22.06.2011 16:56 18,0 C 71 % 1006,5 hPa 0,0 l/m 6,6 km/h (2 Bft) SW 220 0 min 0 W/m 12,7 C 17,9 C 6,6 km/h (2 Bft)
22.06.2011 17:01 17,9 C 71 % 1006,5 hPa 0,0 l/m 4,7 km/h (1 Bft) S-SO 165 0 min 0 W/m 12,6 C 17,9 C 4,7 km/h (1 Bft)
22.06.2011 17:06 17,9 C 71 % 1006,5 hPa 0,0 l/m 1,0 km/h (0 Bft) S-SW 200 0 min 0 W/m 12,6 C 17,9 C 1,0 km/h (0 Bft)
22.06.2011 17:11 17,9 C 71 % 1005,5 hPa 0,0 l/m 5,9 km/h (2 Bft) S 180 0 min 0 W/m 12,6 C 17,9 C 5,9 km/h (2 Bft)
22.06.2011 17:16 17,9 C 71 % 1005,5 hPa 0,0 l/m 0,0 km/h (0 Bft) S-SW 205 0 min 0 W/m 12,6 C 17,9 C 0,0 km/h (0 Bft)
22.06.2011 17:21 18,0 C 72 % 1005,5 hPa 0,0 l/m 6,3 km/h (2 Bft) S 170 0 min 0 W/m 12,9 C 18,0 C 6,3 km/h (2 Bft)
22.06.2011 17:26 17,9 C 72 % 1005,5 hPa 0,0 l/m 0,8 km/h (0 Bft) SO 140 0 min 0 W/m 12,8 C 17,9 C 0,8 km/h (0 Bft)
22.06.2011 17:31 17,8 C 72 % 1005,5 hPa 0,0 l/m 0,0 km/h (0 Bft) SO 140 0 min 0 W/m 12,7 C 17,8 C 0,0 km/h (0 Bft)
22.06.2011 17:36 17,8 C 72 % 1005,5 hPa 0,0 l/m 3,2 km/h (1 Bft) SO 140 0 min 0 W/m 12,7 C 17,8 C 3,2 km/h (1 Bft)
22.06.2011 17:41 17,9 C 72 % 1005,5 hPa 0,0 l/m 0,0 km/h (0 Bft) SO 140 0 min 0 W/m 12,8 C 17,9 C 0,0 km/h (0 Bft)
22.06.2011 17:46 17,9 C 72 % 1004,5 hPa 0,0 l/m 0,0 km/h (0 Bft) SO 140 0 min 0 W/m 12,8 C 17,9 C 0,0 km/h (0 Bft)
22.06.2011 17:51 17,9 C 73 % 1004,5 hPa 0,0 l/m 0,4 km/h (0 Bft) SO 140 0 min 0 W/m 13,0 C 17,9 C 0,4 km/h (0 Bft)
22.06.2011 17:56 18,0 C 73 % 1004,5 hPa 0,0 l/m 3,4 km/h (1 Bft) SO 140 0 min 0 W/m 13,1 C 18,0 C 3,4 km/h (1 Bft)
22.06.2011 18:01 18,0 C 73 % 1004,5 hPa 0,0 l/m 0,2 km/h (0 Bft) SO 140 0 min 0 W/m 13,1 C 18,0 C 0,2 km/h (0 Bft)
22.06.2011 18:06 18,0 C 71 % 1004,5 hPa 0,0 l/m 0,6 km/h (0 Bft) SO 140 0 min 0 W/m 12,7 C 18,0 C 0,6 km/h (0 Bft)
22.06.2011 18:12 18,0 C 71 % 1005,5 hPa 0,0 l/m 5,4 km/h (2 Bft) S 190 0 min 0 W/m 12,7 C 18,0 C 5,4 km/h (2 Bft)
22.06.2011 18:16 18,0 C 71 % 1005,5 hPa 0,0 l/m 4,2 km/h (1 Bft) W-SW 245 0 min 0 W/m 12,7 C 18,0 C 4,2 km/h (1 Bft)
22.06.2011 18:21 17,9 C 71 % 1005,5 hPa 0,0 l/m 0,0 km/h (0 Bft) W-SW 245 0 min 0 W/m 12,6 C 17,9 C 0,0 km/h (0 Bft)
22.06.2011 18:26 17,8 C 72 % 1005,5 hPa 0,0 l/m 4,6 km/h (1 Bft) W-SW 245 0 min 0 W/m 12,7 C 17,8 C 4,6 km/h (1 Bft)
22.06.2011 18:31 17,7 C 71 % 1005,5 hPa 0,0 l/m 0,6 km/h (0 Bft) W-SW 255 0 min 0 W/m 12,4 C 17,7 C 0,6 km/h (0 Bft)
22.06.2011 18:36 17,6 C 71 % 1005,5 hPa 0,0 l/m 3,0 km/h (1 Bft) W-SW 255 0 min 0 W/m 12,3 C 17,6 C 3,0 km/h (1 Bft)
22.06.2011 18:41 17,6 C 72 % 1005,5 hPa 0,0 l/m 8,8 km/h (2 Bft) W 275 0 min 0 W/m 12,5 C 16,5 C 8,8 km/h (2 Bft)
22.06.2011 18:46 17,4 C 74 % 1005,5 hPa 0,0 l/m 13,8 km/h (3 Bft) W-NW 285 0 min 0 W/m 12,7 C 14,5 C 13,8 km/h (3 Bft)
22.06.2011 18:51 17,4 C 74 % 1005,5 hPa 0,3 l/m 13,4 km/h (3 Bft) W-NW 295 0 min 0 W/m 12,7 C 14,6 C 13,4 km/h (3 Bft)
22.06.2011 18:56 17,2 C 76 % 1005,5 hPa 0,0 l/m 5,7 km/h (2 Bft) W-SW 255 0 min 0 W/m 12,9 C 17,2 C 5,7 km/h (2 Bft)
22.06.2011 19:01 17,0 C 77 % 1005,5 hPa 0,0 l/m 12,8 km/h (3 Bft) W-NW 290 0 min 0 W/m 12,9 C 14,3 C 12,8 km/h (3 Bft)
22.06.2011 19:06 16,9 C 78 % 1005,5 hPa 0,0 l/m 13,4 km/h (3 Bft) NW 305 0 min 0 W/m 13,0 C 14,0 C 13,4 km/h (3 Bft)
22.06.2011 19:11 16,8 C 78 % 1005,5 hPa 0,3 l/m 11,5 km/h (2 Bft) W-NW 300 0 min 0 W/m 12,9 C 14,5 C 11,5 km/h (2 Bft)
22.06.2011 19:16 16,6 C 78 % 1005,5 hPa 0,0 l/m 13,3 km/h (3 Bft) NW 315 0 min 0 W/m 12,7 C 13,7 C 13,3 km/h (3 Bft)
22.06.2011 19:21 16,5 C 79 % 1005,5 hPa 0,0 l/m 16,0 km/h (3 Bft) NW 325 0 min 0 W/m 12,8 C 12,7 C 16,0 km/h (3 Bft)
22.06.2011 19:26 16,4 C 79 % 1005,5 hPa 0,0 l/m 16,3 km/h (3 Bft) NW 305 0 min 0 W/m 12,7 C 12,5 C 16,3 km/h (3 Bft)
22.06.2011 19:31 16,1 C 80 % 1005,5 hPa 0,3 l/m 17,7 km/h (3 Bft) W-NW 285 0 min 0 W/m 12,6 C 11,7 C 17,7 km/h (3 Bft)
22.06.2011 19:36 15,9 C 81 % 1005,5 hPa 1,5 l/m 15,4 km/h (3 Bft) NW 315 0 min 0 W/m 12,6 C 12,2 C 15,4 km/h (3 Bft)
22.06.2011 19:41 15,8 C 82 % 1005,5 hPa 0,0 l/m 21,7 km/h (4 Bft) NW 305 0 min 0 W/m 12,7 C 10,4 C 21,7 km/h (4 Bft)
22.06.2011 19:46 15,6 C 83 % 1005,5 hPa 0,3 l/m 21,0 km/h (4 Bft) NW 320 0 min 0 W/m 12,7 C 10,3 C 21,0 km/h (4 Bft)
22.06.2011 19:51 15,5 C 84 % 1005,5 hPa 0,0 l/m 17,7 km/h (3 Bft) NW 315 0 min 0 W/m 12,8 C 11,0 C 17,7 km/h (3 Bft)
22.06.2011 19:56 15,5 C 85 % 1005,5 hPa 0,3 l/m 19,6 km/h (3 Bft) NW 305 0 min 0 W/m 13,0 C 10,5 C 19,6 km/h (3 Bft)
22.06.2011 20:01 15,3 C 86 % 1005,5 hPa 0,0 l/m 25,8 km/h (4 Bft) W-NW 295 0 min 0 W/m 13,0 C 8,9 C 25,8 km/h (4 Bft)
22.06.2011 20:06 15,1 C 86 % 1005,5 hPa 0,0 l/m 24,4 km/h (4 Bft) W-NW 290 0 min 0 W/m 12,8 C 8,9 C 24,4 km/h (4 Bft)
22.06.2011 20:11 15,1 C 87 % 1005,5 hPa 0,0 l/m 17,5 km/h (3 Bft) W-NW 285 0 min 0 W/m 13,0 C 10,5 C 17,5 km/h (3 Bft)
22.06.2011 20:16 15,0 C 87 % 1005,5 hPa 0,0 l/m 23,4 km/h (4 Bft) NW 305 0 min 0 W/m 12,9 C 8,9 C 23,4 km/h (4 Bft)
22.06.2011 20:22 15,0 C 85 % 1005,5 hPa 0,0 l/m 24,4 km/h (4 Bft) NW 305 0 min 0 W/m 12,5 C 8,7 C 24,4 km/h (4 Bft)
22.06.2011 20:26 15,0 C 85 % 1005,5 hPa 0,0 l/m 18,7 km/h (3 Bft) NW 310 0 min 0 W/m 12,5 C 10,1 C 18,7 km/h (3 Bft)
22.06.2011 20:31 15,0 C 84 % 1006,5 hPa 0,0 l/m 21,8 km/h (4 Bft) W-NW 285 0 min 0 W/m 12,3 C 9,3 C 21,8 km/h (4 Bft)
22.06.2011 20:36 14,9 C 84 % 1006,5 hPa 0,0 l/m 23,4 km/h (4 Bft) W 275 0 min 0 W/m 12,2 C 8,8 C 23,4 km/h (4 Bft)
22.06.2011 20:41 14,8 C 84 % 1006,5 hPa 0,0 l/m 21,2 km/h (4 Bft) W 275 0 min 0 W/m 12,1 C 9,2 C 21,2 km/h (4 Bft)
22.06.2011 20:46 14,8 C 84 % 1006,5 hPa 0,0 l/m 10,6 km/h (2 Bft) W 265 0 min 0 W/m 12,1 C 12,6 C 10,6 km/h (2 Bft)
22.06.2011 20:51 14,8 C 83 % 1006,5 hPa 0,0 l/m 22,6 km/h (4 Bft) W 270 0 min 0 W/m 11,9 C 8,9 C 22,6 km/h (4 Bft)
22.06.2011 20:56 14,7 C 84 % 1006,5 hPa 0,0 l/m 25,5 km/h (4 Bft) W 270 0 min 0 W/m 12,0 C 8,1 C 25,5 km/h (4 Bft)
22.06.2011 21:01 14,7 C 84 % 1006,5 hPa 0,0 l/m 29,3 km/h (5 Bft) W 275 0 min 0 W/m 12,0 C 7,4 C 29,3 km/h (5 Bft)
22.06.2011 21:07 14,7 C 84 % 1006,5 hPa 0,0 l/m 18,5 km/h (3 Bft) NW 305 0 min 0 W/m 12,0 C 9,8 C 18,5 km/h (3 Bft)
22.06.2011 21:11 14,6 C 84 % 1006,5 hPa 0,0 l/m 25,8 km/h (4 Bft) W-NW 295 0 min 0 W/m 11,9 C 7,9 C 25,8 km/h (4 Bft)
22.06.2011 21:16 14,6 C 83 % 1006,5 hPa 0,0 l/m 20,5 km/h (4 Bft) NW 305 0 min 0 W/m 11,7 C 9,1 C 20,5 km/h (4 Bft)
22.06.2011 21:21 14,5 C 83 % 1006,5 hPa 0,0 l/m 20,4 km/h (4 Bft) W-NW 295 0 min 0 W/m 11,6 C 9,0 C 20,4 km/h (4 Bft)
22.06.2011 21:26 14,4 C 83 % 1006,5 hPa 0,0 l/m 18,0 km/h (3 Bft) NW 310 0 min 0 W/m 11,5 C 9,5 C 18,0 km/h (3 Bft)
22.06.2011 21:31 14,3 C 83 % 1006,5 hPa 0,0 l/m 15,3 km/h (3 Bft) W-NW 300 0 min 0 W/m 11,5 C 10,2 C 15,3 km/h (3 Bft)
22.06.2011 21:36 14,3 C 82 % 1006,5 hPa 0,0 l/m 20,3 km/h (4 Bft) W-NW 300 0 min 0 W/m 11,3 C 8,8 C 20,3 km/h (4 Bft)
22.06.2011 21:41 14,2 C 83 % 1006,5 hPa 0,0 l/m 12,6 km/h (3 Bft) W-NW 285 0 min 0 W/m 11,4 C 11,1 C 12,6 km/h (3 Bft)
22.06.2011 21:46 14,2 C 82 % 1006,5 hPa 0,0 l/m 20,9 km/h (4 Bft) W-NW 285 0 min 0 W/m 11,2 C 8,5 C 20,9 km/h (4 Bft)
22.06.2011 21:51 14,1 C 82 % 1006,5 hPa 0,0 l/m 24,1 km/h (4 Bft) W-NW 300 0 min 0 W/m 11,1 C 7,6 C 24,1 km/h (4 Bft)
22.06.2011 21:56 14,0 C 82 % 1006,5 hPa 0,0 l/m 22,5 km/h (4 Bft) W-NW 285 0 min 0 W/m 11,0 C 7,8 C 22,5 km/h (4 Bft)
22.06.2011 22:02 13,9 C 82 % 1006,5 hPa 0,0 l/m 25,3 km/h (4 Bft) W 270 0 min 0 W/m 10,9 C 7,1 C 25,3 km/h (4 Bft)
22.06.2011 22:06 13,9 C 82 % 1006,5 hPa 0,0 l/m 24,0 km/h (4 Bft) W 270 0 min 0 W/m 10,9 C 7,3 C 24,0 km/h (4 Bft)
22.06.2011 22:11 13,8 C 82 % 1006,5 hPa 0,0 l/m 18,6 km/h (3 Bft) W 270 0 min 0 W/m 10,8 C 8,6 C 18,6 km/h (3 Bft)
22.06.2011 22:16 13,8 C 82 % 1006,5 hPa 0,0 l/m 18,0 km/h (3 Bft) W 265 0 min 0 W/m 10,8 C 8,8 C 18,0 km/h (3 Bft)
22.06.2011 22:21 13,8 C 82 % 1006,5 hPa 0,0 l/m 20,4 km/h (4 Bft) W 280 0 min 0 W/m 10,8 C 8,1 C 20,4 km/h (4 Bft)
22.06.2011 22:26 13,7 C 82 % 1006,5 hPa 0,0 l/m 25,1 km/h (4 Bft) W-NW 285 0 min 0 W/m 10,7 C 6,8 C 25,1 km/h (4 Bft)
22.06.2011 22:31 13,6 C 82 % 1006,5 hPa 0,0 l/m 18,9 km/h (3 Bft) W 270 0 min 0 W/m 10,6 C 8,2 C 18,9 km/h (3 Bft)
22.06.2011 22:36 13,6 C 82 % 1006,5 hPa 0,0 l/m 18,9 km/h (3 Bft) W 270 0 min 0 W/m 10,6 C 8,2 C 18,9 km/h (3 Bft)
22.06.2011 22:41 13,6 C 82 % 1006,5 hPa 0,0 l/m 20,5 km/h (4 Bft) W 260 0 min 0 W/m 10,6 C 7,8 C 20,5 km/h (4 Bft)
22.06.2011 22:46 13,6 C 83 % 1006,5 hPa 0,0 l/m 17,5 km/h (3 Bft) W 260 0 min 0 W/m 10,8 C 8,7 C 17,5 km/h (3 Bft)
22.06.2011 22:51 13,6 C 83 % 1006,5 hPa 0,0 l/m 20,6 km/h (4 Bft) W 260 0 min 0 W/m 10,8 C 7,8 C 20,6 km/h (4 Bft)
22.06.2011 22:56 13,6 C 84 % 1006,5 hPa 0,0 l/m 23,1 km/h (4 Bft) W 265 0 min 0 W/m 10,9 C 7,1 C 23,1 km/h (4 Bft)
22.06.2011 23:01 13,5 C 84 % 1006,5 hPa 0,0 l/m 22,6 km/h (4 Bft) W 260 0 min 0 W/m 10,8 C 7,1 C 22,6 km/h (4 Bft)
22.06.2011 23:06 13,6 C 84 % 1007,5 hPa 0,0 l/m 24,6 km/h (4 Bft) W 270 0 min 0 W/m 10,9 C 6,8 C 24,6 km/h (4 Bft)
22.06.2011 23:11 13,5 C 84 % 1006,5 hPa 0,0 l/m 27,5 km/h (5 Bft) W 275 0 min 0 W/m 10,8 C 6,1 C 27,5 km/h (5 Bft)
22.06.2011 23:16 13,6 C 85 % 1006,5 hPa 0,0 l/m 24,0 km/h (4 Bft) W-SW 255 0 min 0 W/m 11,1 C 6,9 C 24,0 km/h (4 Bft)
22.06.2011 23:21 13,6 C 85 % 1006,5 hPa 0,0 l/m 31,1 km/h (5 Bft) W 265 0 min 0 W/m 11,1 C 5,5 C 31,1 km/h (5 Bft)
22.06.2011 23:26 13,6 C 85 % 1007,5 hPa 0,0 l/m 37,1 km/h (5 Bft) W 265 0 min 0 W/m 11,1 C 4,6 C 37,1 km/h (5 Bft)
22.06.2011 23:31 13,6 C 85 % 1007,5 hPa 0,0 l/m 30,0 km/h (5 Bft) W 260 0 min 0 W/m 11,1 C 5,7 C 30,0 km/h (5 Bft)
22.06.2011 23:36 13,6 C 85 % 1007,5 hPa 0,0 l/m 25,8 km/h (4 Bft) W 270 0 min 0 W/m 11,1 C 6,5 C 25,8 km/h (4 Bft)
22.06.2011 23:41 13,6 C 86 % 1007,5 hPa 0,0 l/m 32,7 km/h (5 Bft) W 265 0 min 0 W/m 11,3 C 5,3 C 32,7 km/h (5 Bft)
22.06.2011 23:46 13,6 C 86 % 1007,5 hPa 0,0 l/m 30,3 km/h (5 Bft) W 260 0 min 0 W/m 11,3 C 5,7 C 30,3 km/h (5 Bft)
22.06.2011 23:51 13,7 C 86 % 1007,5 hPa 0,0 l/m 25,1 km/h (4 Bft) W 270 0 min 0 W/m 11,4 C 6,8 C 25,1 km/h (4 Bft)
22.06.2011 23:56 13,7 C 86 % 1007,5 hPa 0,0 l/m 25,1 km/h (4 Bft) W 270 0 min 0 W/m 11,4 C 6,8 C 25,1 km/h (4 Bft)
_ Min-Zeit 23:01 13:31 17:46 - 16:46 - - - - 22:31 23:26 16:46
Minimum _ 13,5 C 62 % 1004,5 hPa - 0,0 km/h (0 Bft) - - - - 10,6 C 4,6 C 0,0 km/h (0 Bft)
_ Max-Zeit 13:26 20:11 00:01 19:36 23:26 - - 00:01 00:01 00:01 15:26 23:26
Maximum _ 19,0 C 87 % 1009,5 hPa 1,5 l/m 37,1 km/h
W (5 Bft)
- - 0 min 0 W/m 13,1 C 18,1 C 37,1 km/h
W (5 Bft)
Durchschnitt _ 16,3 C 76 % 1007,7 hPa #3,0 l/m 15,6 km/h (3 Bft) W-SW - #0 min. 0 W/m 12,0 C 12,8 C 15,6 km/h (3 Bft)
copyright by Holger Just